Time;durP1;ratioP1;P1;durP2;ratioP2;P2;SDS_P1;SDS_P2;PMS_P1;PMS_P2;Temp;Humidity;BMP_temperature;BMP_pressure;BME280_temperature;BME280_humidity;BME280_pressure;Samples;Min_cycle;Max_cycle;Signal;HPM_P1;HPM_P2
2022/08/12 00:44:25;;;;;;;3.63;1.80;;;22.10;58.20;;;;;;4992512;28;20057;-78
2022/08/12 00:47:00;;;;;;;4.28;1.73;;;22.10;58.50;;;;;;4991458;28;20041;-78
2022/08/12 00:49:28;;;;;;;4.22;2.28;;;22.10;58.30;;;;;;4990901;28;20042;-79
2022/08/12 00:52:10;;;;;;;;;;;22.00;58.40;;;;;;4992757;28;20045;-80
2022/08/12 00:54:47;;;;;;;10.10;1.98;;;22.00;58.50;;;;;;4990611;28;19956;-79
2022/08/12 00:57:30;;;;;;;3.33;2.00;;;21.90;58.10;;;;;;4992083;28;20033;-79
2022/08/12 00:59:59;;;;;;;5.15;1.75;;;21.90;58.30;;;;;;4992116;28;20034;-78
2022/08/12 01:02:33;;;;;;;3.40;1.52;;;21.90;58.20;;;;;;4991894;28;20033;-78
2022/08/12 01:13:27;;;;;;;5.22;2.17;;;21.80;58.80;;;;;;4991892;28;20041;-78
2022/08/12 01:15:58;;;;;;;2.10;1.63;;;21.70;58.90;;;;;;4991866;28;20030;-79
2022/08/12 01:18:28;;;;;;;2.22;1.50;;;21.70;58.90;;;;;;4991659;28;20034;-79
2022/08/12 01:21:25;;;;;;;4.78;1.60;;;21.70;59.00;;;;;;4990471;28;20038;-78
2022/08/12 01:24:28;;;;;;;3.53;2.30;;;21.70;58.80;;;;;;4991376;28;20240;-79
2022/08/12 01:26:55;;;;;;;4.07;1.77;;;21.70;58.70;;;;;;4990858;28;20073;-79
2022/08/12 01:29:27;;;;;;;7.82;2.00;;;21.60;59.10;;;;;;4991709;28;20113;-78
2022/08/12 01:31:57;;;;;;;4.50;2.05;;;21.70;59.10;;;;;;4992376;28;20472;-78
2022/08/12 01:34:35;;;;;;;4.57;1.67;;;21.60;59.50;;;;;;4991813;28;20459;-78
2022/08/12 01:37:01;;;;;;;;;;;21.60;59.60;;;;;;4992059;28;20089;-79
2022/08/12 01:39:49;;;;;;;3.58;1.60;;;21.50;59.60;;;;;;4990470;28;19909;-79
2022/08/12 01:42:19;;;;;;;3.55;1.40;;;21.50;59.70;;;;;;4991437;28;20038;-78
2022/08/12 01:44:47;;;;;;;6.50;2.00;;;21.50;59.90;;;;;;4991551;28;20345;-78
2022/08/12 01:47:38;;;;;;;2.85;1.95;;;21.40;60.00;;;;;;4991493;28;20030;-78
2022/08/12 01:50:19;;;;;;;3.28;1.80;;;21.30;60.20;;;;;;4991686;28;20406;-78
2022/08/12 01:53:05;;;;;;;2.17;1.52;;;21.30;60.40;;;;;;4990416;28;20124;-78
2022/08/12 01:55:34;;;;;;;2.80;1.92;;;21.30;60.20;;;;;;4991543;28;20030;-79
2022/08/12 01:58:27;;;;;;;6.18;1.80;;;21.30;60.40;;;;;;4991487;28;20045;-79
2022/08/12 02:01:03;;;;;;;3.38;1.67;;;21.20;60.50;;;;;;4991366;28;20379;-78
2022/08/12 02:13:21;;;;;;;4.28;1.52;;;21.10;60.80;;;;;;4991463;28;20065;-79
2022/08/12 02:16:00;;;;;;;3.33;1.65;;;21.00;60.90;;;;;;4991311;28;20045;-79
2022/08/12 02:18:44;;;;;;;5.07;1.90;;;20.90;61.30;;;;;;4991100;28;20035;-79
2022/08/12 02:21:23;;;;;;;4.20;1.80;;;20.80;62.00;;;;;;4991115;28;20110;-78
2022/08/12 02:23:49;;;;;;;3.63;1.83;;;20.80;62.00;;;;;;4990024;28;20081;-78
2022/08/12 02:26:17;;;;;;;4.35;1.85;;;20.80;62.10;;;;;;4991126;28;20063;-79
2022/08/12 02:28:44;;;;;;;2.25;1.50;;;20.80;62.20;;;;;;4990487;28;20022;-78
2022/08/12 02:31:10;;;;;;;2.72;1.95;;;20.80;62.40;;;;;;4991197;28;20484;-80
2022/08/12 02:33:37;;;;;;;6.63;2.20;;;20.80;62.20;;;;;;4991172;28;20096;-78
2022/08/12 02:36:08;;;;;;;4.25;2.17;;;20.80;62.70;;;;;;4990998;28;20034;-79
2022/08/12 02:38:35;;;;;;;4.28;1.90;;;20.70;62.60;;;;;;4992923;28;20042;-78
2022/08/12 02:41:12;;;;;;;2.42;1.80;;;20.70;62.70;;;;;;4994768;28;20033;-78
2022/08/12 02:43:58;;;;;;;5.28;1.90;;;20.70;63.10;;;;;;5009861;28;20483;-80
2022/08/12 02:46:33;;;;;;;7.00;2.20;;;20.70;63.50;;;;;;4994604;28;20054;-80
2022/08/12 02:49:39;;;;;;;4.70;1.67;;;20.60;63.50;;;;;;4993513;28;20031;-79
2022/08/12 02:52:06;;;;;;;1.85;1.60;;;20.60;63.40;;;;;;4937150;29;20035;-80
2022/08/12 02:54:33;;;;;;;3.55;2.10;;;20.60;63.40;;;;;;4987855;28;20381;-78
2022/08/12 02:56:59;;;;;;;4.68;2.25;;;20.50;63.70;;;;;;4994532;28;20404;-79
2022/08/12 02:59:27;;;;;;;2.42;2.00;;;20.50;64.20;;;;;;4993409;28;20088;-81
2022/08/12 03:01:58;;;;;;;4.90;2.03;;;20.50;64.50;;;;;;4994447;28;20424;-79
2022/08/12 03:04:48;;;;;;;3.35;1.80;;;20.40;64.60;;;;;;4993884;28;20062;-78
2022/08/12 03:07:20;;;;;;;7.28;1.92;;;20.40;64.70;;;;;;4984150;28;20038;-79
2022/08/12 03:09:58;;;;;;;8.43;2.20;;;20.40;64.30;;;;;;4992717;28;20034;-78
2022/08/12 03:12:25;;;;;;;3.85;2.10;;;20.30;64.80;;;;;;4993758;28;20034;-79
2022/08/12 03:14:53;;;;;;;4.65;1.90;;;20.20;65.40;;;;;;4993785;28;20030;-79
2022/08/12 03:17:30;;;;;;;4.43;2.03;;;20.20;65.50;;;;;;4993828;28;20026;-80
2022/08/12 03:19:56;;;;;;;4.93;2.08;;;20.20;65.30;;;;;;4994264;28;20026;-79
2022/08/12 03:22:23;;;;;;;2.65;1.95;;;20.10;65.70;;;;;;4993813;28;20035;-79
2022/08/12 03:24:50;;;;;;;7.47;1.90;;;20.10;65.90;;;;;;4992718;28;20480;-80
2022/08/12 03:27:16;;;;;;;4.93;2.55;;;20.10;66.00;;;;;;4993749;28;20069;-79
2022/08/12 03:29:48;;;;;;;8.73;2.28;;;20.00;66.80;;;;;;4992859;28;20034;-80
2022/08/12 03:32:14;;;;;;;9.57;2.20;;;20.00;66.60;;;;;;4994288;28;20018;-79
2022/08/12 03:34:41;;;;;;;4.47;2.72;;;19.90;67.70;;;;;;4993571;28;20349;-78
2022/08/12 03:37:09;;;;;;;5.50;2.03;;;19.90;67.30;;;;;;4993613;28;20102;-78
2022/08/12 03:42:08;;;;;;;6.13;2.67;;;19.90;67.70;;;;;;4992969;28;19910;-78
2022/08/12 04:01:56;;;;;;;3.53;2.50;;;19.50;71.10;;;;;;4993251;28;20100;-78
2022/08/12 04:04:32;;;;;;;3.75;2.13;;;19.50;70.40;;;;;;4992988;28;20049;-78
2022/08/12 04:06:59;;;;;;;4.60;2.97;;;19.60;70.60;;;;;;4992466;28;20050;-79
2022/08/12 04:09:25;;;;;;;5.03;2.30;;;19.50;71.00;;;;;;4992689;28;20456;-78
2022/08/12 04:14:36;;;;;;;5.10;2.25;;;19.40;71.80;;;;;;4992757;28;20117;-78
2022/08/12 04:17:02;;;;;;;3.70;2.40;;;19.40;71.90;;;;;;4991791;28;20376;-78
2022/08/12 04:19:29;;;;;;;4.50;2.70;;;19.30;71.70;;;;;;4992623;28;20124;-78
2022/08/12 04:21:56;;;;;;;10.35;2.30;;;19.30;72.30;;;;;;4993556;28;20034;-79
2022/08/12 04:24:25;;;;;;;6.80;2.50;;;19.30;72.00;;;;;;4991427;28;20044;-78
2022/08/12 04:26:51;;;;;;;12.45;2.42;;;19.20;72.40;;;;;;4992270;28;20398;-77
2022/08/12 04:29:20;;;;;;;12.13;3.05;;;19.20;72.80;;;;;;4993618;28;20027;-78
2022/08/12 04:31:46;;;;;;;8.32;3.10;;;19.20;73.50;;;;;;4993665;28;20058;-78
2022/08/12 04:34:12;;;;;;;3.50;2.15;;;19.20;74.00;;;;;;4991311;28;20500;-79
2022/08/12 04:36:39;;;;;;;7.43;2.13;;;19.20;74.10;;;;;;4992692;28;20034;-78
2022/08/12 04:39:07;;;;;;;9.63;3.83;;;19.20;74.70;;;;;;4992362;28;20041;-79
2022/08/12 04:41:33;;;;;;;;;;;19.20;75.30;;;;;;4992731;28;20037;-78
2022/08/12 04:44:00;;;;;;;4.10;2.28;;;19.20;75.10;;;;;;4992650;28;20221;-78
2022/08/12 04:46:26;;;;;;;10.50;3.08;;;19.10;76.30;;;;;;4991793;28;20049;-78
2022/08/12 04:48:52;;;;;;;8.52;2.63;;;19.20;76.20;;;;;;4990822;28;20027;-78
2022/08/12 04:51:28;;;;;;;7.57;2.70;;;19.10;76.50;;;;;;4992106;28;20030;-79
2022/08/12 04:53:54;;;;;;;13.30;3.10;;;19.10;76.80;;;;;;4992126;28;20527;-78
2022/08/12 04:56:28;;;;;;;8.02;2.75;;;19.20;78.20;;;;;;4990700;28;20084;-79
2022/08/12 04:58:58;;;;;;;8.93;3.05;;;19.20;77.60;;;;;;4992309;28;20393;-78
2022/08/12 05:01:31;;;;;;;36.90;4.70;;;19.20;78.00;;;;;;4990031;28;20122;-79
2022/08/12 05:03:58;;;;;;;64.28;8.85;;;19.30;77.60;;;;;;4991694;28;20038;-79
2022/08/12 05:06:31;;;;;;;19.50;4.55;;;19.30;78.60;;;;;;4990722;28;20054;-78
2022/08/12 05:08:59;;;;;;;7.70;3.08;;;19.30;78.90;;;;;;4990718;28;20061;-78
2022/08/12 05:11:25;;;;;;;29.15;5.80;;;19.30;79.60;;;;;;4992074;28;20022;-78
2022/08/12 05:14:00;;;;;;;8.38;3.38;;;19.30;79.10;;;;;;4992446;28;20146;-78
2022/08/12 05:16:26;;;;;;;9.25;2.95;;;19.40;79.80;;;;;;4991548;28;20437;-78
2022/08/12 05:18:52;;;;;;;14.82;4.00;;;19.40;80.30;;;;;;4991977;28;20042;-78
2022/08/12 05:21:27;;;;;;;9.65;3.03;;;19.40;80.00;;;;;;4991620;28;20031;-79
2022/08/12 05:23:53;;;;;;;8.38;2.97;;;19.40;80.50;;;;;;4991575;28;20453;-78
2022/08/12 05:26:19;;;;;;;11.02;3.40;;;19.50;80.50;;;;;;4991593;28;20018;-78
2022/08/12 05:28:45;;;;;;;21.63;3.67;;;19.50;80.40;;;;;;4992514;28;20037;-78
2022/08/12 05:31:23;;;;;;;11.55;3.50;;;19.50;80.80;;;;;;4990404;28;20030;-78
2022/08/12 05:33:49;;;;;;;13.63;3.53;;;19.50;81.30;;;;;;4991475;28;20481;-79
2022/08/12 05:36:30;;;;;;;9.32;3.97;;;19.60;80.80;;;;;;4991715;28;20034;-79
2022/08/12 05:38:56;;;;;;;12.50;3.65;;;19.60;81.50;;;;;;4991555;28;20378;-78
2022/08/12 05:41:31;;;;;;;14.57;3.90;;;19.70;81.00;;;;;;4990363;28;20089;-77
2022/08/12 05:43:59;;;;;;;15.52;3.35;;;19.70;82.20;;;;;;4990931;28;20034;-77
2022/08/12 05:46:26;;;;;;;11.63;3.53;;;19.80;81.10;;;;;;4991674;28;20037;-78
2022/08/12 05:48:53;;;;;;;14.88;3.30;;;19.90;80.60;;;;;;4991674;28;20129;-79
2022/08/12 05:51:23;;;;;;;25.60;4.63;;;19.90;80.40;;;;;;4991471;28;20061;-79
2022/08/12 05:53:51;;;;;;;16.80;3.92;;;19.90;79.80;;;;;;4990313;28;20483;-79
2022/08/12 05:56:33;;;;;;;8.15;3.60;;;20.00;79.90;;;;;;4990489;28;20113;-78
2022/08/12 05:59:00;;;;;;;18.40;3.50;;;20.10;80.30;;;;;;4991952;28;20026;-78
2022/08/12 06:01:28;;;;;;;14.45;4.40;;;20.10;79.70;;;;;;4991455;28;20038;-79
2022/08/12 06:03:55;;;;;;;14.63;3.40;;;20.10;79.10;;;;;;4990508;28;20034;-79
2022/08/12 06:06:22;;;;;;;10.52;5.57;;;20.20;78.80;;;;;;4991587;28;20031;-80
2022/08/12 06:08:52;;;;;;;10.93;4.00;;;20.10;78.10;;;;;;4991340;28;20049;-80
2022/08/12 06:11:27;;;;;;;12.07;3.38;;;20.20;77.30;;;;;;4991027;28;20051;-79
2022/08/12 06:13:54;;;;;;;9.77;3.35;;;20.20;77.90;;;;;;4995432;28;20030;-80
2022/08/12 06:16:24;;;;;;;10.73;3.15;;;20.30;76.50;;;;;;4995223;28;20030;-79
2022/08/12 06:18:51;;;;;;;7.25;3.40;;;20.30;76.80;;;;;;4994953;28;20030;-79
2022/08/12 06:21:20;;;;;;;15.23;3.33;;;20.30;76.80;;;;;;4994956;28;20065;-79
2022/08/12 06:23:46;;;;;;;10.05;3.67;;;20.40;76.90;;;;;;4995048;28;20043;-78
2022/08/12 06:26:24;;;;;;;7.43;2.85;;;20.40;77.20;;;;;;4995027;28;20033;-78
2022/08/12 06:28:50;;;;;;;7.03;2.42;;;20.50;77.10;;;;;;4995393;28;20043;-79
2022/08/12 06:31:27;;;;;;;6.43;2.78;;;20.60;76.20;;;;;;4994611;28;20030;-79
2022/08/12 06:33:54;;;;;;;;;;;20.60;77.00;;;;;;4995328;28;20104;-77
2022/08/12 06:36:23;;;;;;;13.63;2.97;;;20.60;77.10;;;;;;4994938;28;19923;-77
2022/08/12 06:38:49;;;;;;;16.02;2.88;;;20.80;76.80;;;;;;4994907;28;20054;-79
2022/08/12 06:44:03;;;;;;;8.02;2.63;;;20.80;76.90;;;;;;4994808;28;20080;-78
2022/08/12 06:46:29;;;;;;;19.23;3.45;;;20.90;76.60;;;;;;4994344;28;20035;-78
2022/08/12 06:48:57;;;;;;;9.25;2.83;;;20.90;75.90;;;;;;4993974;28;20468;-79
2022/08/12 06:51:29;;;;;;;8.27;2.70;;;21.00;75.90;;;;;;4993093;28;20417;-78
2022/08/12 06:53:56;;;;;;;4.15;2.88;;;21.10;75.90;;;;;;4994181;28;20038;-79
2022/08/12 06:56:22;;;;;;;9.52;3.13;;;21.10;75.10;;;;;;4994330;28;20157;-78
2022/08/12 06:58:48;;;;;;;6.38;2.60;;;21.20;74.50;;;;;;4994715;28;20097;-78
2022/08/12 07:01:32;;;;;;;6.45;2.80;;;21.30;74.80;;;;;;4993137;28;20031;-79
2022/08/12 07:03:58;;;;;;;10.10;2.75;;;21.40;74.50;;;;;;4994267;28;20464;-79
2022/08/12 07:06:27;;;;;;;8.05;2.47;;;21.50;74.30;;;;;;4993918;28;20100;-77
2022/08/12 07:08:53;;;;;;;9.80;2.95;;;21.60;74.00;;;;;;4993971;28;20066;-79
2022/08/12 07:11:22;;;;;;;8.90;3.63;;;21.60;74.00;;;;;;4994240;28;20449;-79
2022/08/12 07:13:51;;;;;;;9.85;4.72;;;21.70;73.90;;;;;;4994386;28;20026;-79
2022/08/12 07:16:25;;;;;;;9.68;3.72;;;21.80;73.10;;;;;;4994163;28;20472;-78
2022/08/12 07:18:52;;;;;;;4.82;2.40;;;21.90;73.00;;;;;;4993916;28;20092;-77
2022/08/12 07:21:21;;;;;;;5.63;2.75;;;22.00;73.40;;;;;;4993942;28;20049;-78
2022/08/12 07:23:47;;;;;;;9.18;2.55;;;22.10;72.70;;;;;;4993213;28;20125;-76
2022/08/12 07:26:20;;;;;;;7.93;2.90;;;22.30;72.60;;;;;;4992860;28;20042;-76
2022/08/12 07:28:46;;;;;;;7.30;2.70;;;22.40;72.80;;;;;;4994226;28;20018;-77
2022/08/12 07:31:21;;;;;;;7.03;2.92;;;22.50;72.30;;;;;;4993660;28;20042;-77
2022/08/12 07:33:48;;;;;;;9.40;3.05;;;22.60;71.50;;;;;;4992531;28;20026;-77
2022/08/12 07:36:21;;;;;;;6.13;2.53;;;22.70;70.70;;;;;;4993737;28;20041;-77
2022/08/12 07:38:50;;;;;;;7.53;2.85;;;22.80;70.40;;;;;;4992285;28;20331;-77
2022/08/12 07:41:20;;;;;;;6.97;2.53;;;23.00;70.10;;;;;;4993295;28;20022;-78
2022/08/12 07:43:52;;;;;;;3.97;2.25;;;23.10;68.20;;;;;;4993885;28;20052;-78
2022/08/12 07:46:31;;;;;;;7.43;2.28;;;23.20;67.40;;;;;;4993334;28;20031;-79
2022/08/12 07:49:00;;;;;;;9.52;6.55;;;23.30;67.10;;;;;;4993054;28;20030;-77
2022/08/12 07:51:27;;;;;;;13.43;4.07;;;23.40;66.70;;;;;;4992151;28;20487;-78
2022/08/12 07:53:54;;;;;;;10.15;2.85;;;23.50;67.90;;;;;;4993250;28;20089;-78
2022/08/12 07:56:20;;;;;;;7.43;2.28;;;23.60;67.10;;;;;;4992049;28;20029;-77
2022/08/12 07:58:46;;;;;;;7.97;3.13;;;23.80;66.20;;;;;;4993299;28;20022;-77
2022/08/12 08:01:21;;;;;;;4.70;2.35;;;23.90;66.60;;;;;;4992897;28;20093;-78
2022/08/12 08:06:41;;;;;;;6.72;3.00;;;24.20;64.00;;;;;;4992632;28;20475;-78
2022/08/12 08:09:07;;;;;;;12.35;2.72;;;24.40;63.30;;;;;;4992613;28;20061;-78
2022/08/12 08:14:17;;;;;;;7.75;2.67;;;24.70;63.20;;;;;;4993148;28;20041;-76
2022/08/12 08:16:43;;;;;;;9.07;2.22;;;24.90;63.40;;;;;;4993035;28;20030;-78
2022/08/12 08:19:22;;;;;;;4.38;2.55;;;25.10;62.00;;;;;;4992821;28;20030;-77
2022/08/12 08:21:52;;;;;;;4.05;2.22;;;25.40;62.00;;;;;;4991824;28;20373;-76
2022/08/12 08:24:18;;;;;;;3.50;2.08;;;25.70;61.90;;;;;;4992698;28;20050;-78
2022/08/12 08:26:49;;;;;;;5.00;2.60;;;26.10;59.40;;;;;;4993076;28;20046;-78
2022/08/12 08:29:16;;;;;;;3.45;2.15;;;26.70;61.50;;;;;;4991622;28;20062;-79
2022/08/12 08:31:49;;;;;;;7.53;1.98;;;28.00;62.70;;;;;;4993026;28;20314;-80
2022/08/12 08:34:18;;;;;;;6.88;2.28;;;29.30;57.10;;;;;;4992503;28;20054;-79
2022/08/12 08:36:44;;;;;;;3.85;1.90;;;30.60;58.20;;;;;;4993155;28;20045;-77
2022/08/12 08:39:11;;;;;;;4.28;2.15;;;31.80;55.60;;;;;;4992593;28;20469;-79
2022/08/12 08:44:22;;;;;;;7.55;2.67;;;33.40;45.40;;;;;;4992643;28;20165;-78
2022/08/12 08:46:48;;;;;;;8.23;2.58;;;34.10;46.00;;;;;;4991755;28;20113;-79
2022/08/12 08:49:15;;;;;;;13.90;3.15;;;34.90;46.80;;;;;;4991300;28;20508;-78
2022/08/12 08:51:46;;;;;;;4.22;1.90;;;35.50;44.90;;;;;;4992226;28;20041;-79
2022/08/12 08:54:12;;;;;;;4.20;1.98;;;35.90;43.60;;;;;;4991985;28;20042;-80
2022/08/12 08:56:43;;;;;;;3.70;1.90;;;36.40;40.70;;;;;;4992097;28;20061;-80
2022/08/12 08:59:10;;;;;;;8.50;2.13;;;36.80;40.30;;;;;;4992308;28;20032;-80
2022/08/12 09:01:37;;;;;;;;;;;37.20;39.00;;;;;;4993000;28;20026;-79
2022/08/12 09:04:03;;;;;;;6.15;2.20;;;37.10;36.10;;;;;;4990803;28;20264;-78
2022/08/12 09:06:38;;;;;;;4.25;1.77;;;37.70;37.40;;;;;;4991962;28;20039;-79
2022/08/12 09:09:08;;;;;;;4.40;1.65;;;38.20;37.50;;;;;;4991716;28;20030;-79
2022/08/12 09:14:18;;;;;;;2.03;1.63;;;39.00;34.00;;;;;;4991816;28;20419;-81
2022/08/12 09:16:44;;;;;;;6.40;1.90;;;39.10;33.90;;;;;;4992227;28;20022;-80
2022/08/12 09:19:12;;;;;;;4.07;2.03;;;39.60;34.00;;;;;;4990985;28;20041;-80
2022/08/12 09:21:39;;;;;;;4.45;1.95;;;39.60;33.00;;;;;;4991994;28;20041;-80
2022/08/12 09:24:06;;;;;;;3.63;1.52;;;39.80;31.70;;;;;;4991828;28;20468;-78
2022/08/12 09:26:33;;;;;;;5.10;2.22;;;39.80;32.60;;;;;;4991936;28;20049;-81
2022/08/12 09:29:00;;;;;;;4.22;1.90;;;40.00;30.50;;;;;;4992235;28;20027;-81
2022/08/12 09:31:33;;;;;;;2.28;1.73;;;40.30;31.00;;;;;;4991103;28;20039;-79
2022/08/12 09:33:59;;;;;;;4.40;1.70;;;40.10;31.60;;;;;;4991051;28;20039;-80
2022/08/12 09:36:25;;;;;;;6.72;2.10;;;40.40;30.20;;;;;;4991553;28;20455;-78
2022/08/12 09:38:50;;;;;;;3.95;1.80;;;40.60;30.40;;;;;;4991915;28;20513;-79
2022/08/12 09:41:25;;;;;;;5.50;1.88;;;40.60;30.80;;;;;;4991585;28;20030;-78
2022/08/12 09:46:35;;;;;;;3.60;1.88;;;40.20;29.90;;;;;;4992561;28;20045;-80
2022/08/12 09:49:01;;;;;;;5.35;1.88;;;40.30;29.90;;;;;;4995889;28;20030;-80
2022/08/12 09:51:33;;;;;;;3.28;1.83;;;40.60;28.60;;;;;;4994756;28;20041;-79
2022/08/12 09:54:00;;;;;;;11.95;2.53;;;41.10;29.60;;;;;;4996256;28;20133;-79
2022/08/12 09:56:32;;;;;;;14.98;2.80;;;40.70;28.70;;;;;;4995704;28;21146;-79
2022/08/12 09:58:58;;;;;;;3.53;1.92;;;40.60;28.40;;;;;;4996234;28;20365;-78
2022/08/12 10:01:30;;;;;;;6.03;2.03;;;41.30;28.90;;;;;;4995467;28;20035;-80
2022/08/12 10:03:57;;;;;;;3.92;2.40;;;41.60;28.00;;;;;;4995533;28;20443;-78
2022/08/12 10:06:29;;;;;;;2.47;1.92;;;41.20;28.00;;;;;;4995841;28;20030;-79
2022/08/12 10:08:54;;;;;;;4.07;2.20;;;41.00;27.50;;;;;;4994038;28;20035;-79
2022/08/12 10:14:10;;;;;;;5.05;1.90;;;39.70;28.10;;;;;;4995295;28;20033;-79
2022/08/12 10:16:42;;;;;;;7.40;2.00;;;39.20;28.50;;;;;;4996071;28;20030;-79
2022/08/12 10:19:08;;;;;;;2.92;1.63;;;39.00;29.00;;;;;;4994932;28;20050;-79
2022/08/12 10:21:36;;;;;;;3.53;1.50;;;39.00;29.80;;;;;;4994352;28;20034;-77
2022/08/12 10:24:04;;;;;;;5.28;1.98;;;39.10;29.40;;;;;;4995434;28;20488;-78
2022/08/12 10:31:59;;;;;;;3.60;1.90;;;38.50;28.70;;;;;;4996225;28;20372;-80
2022/08/12 10:34:25;;;;;;;3.28;1.70;;;37.50;29.60;;;;;;4994061;28;20023;-79
2022/08/12 10:36:57;;;;;;;6.93;1.73;;;37.70;29.70;;;;;;4995124;28;20053;-79
2022/08/12 10:39:25;;;;;;;4.28;1.90;;;37.70;28.80;;;;;;4994912;28;20030;-78
2022/08/12 10:44:35;;;;;;;6.72;1.95;;;36.30;29.40;;;;;;4996210;28;20098;-78
2022/08/12 10:47:03;;;;;;;2.97;1.60;;;36.00;30.60;;;;;;4998631;28;20041;-78
2022/08/12 10:49:33;;;;;;;3.10;1.80;;;35.80;30.50;;;;;;4995791;28;20469;-79
2022/08/12 10:52:01;;;;;;;7.88;1.70;;;35.20;30.10;;;;;;4994965;28;20073;-78
2022/08/12 10:54:28;;;;;;;5.90;1.52;;;35.10;31.10;;;;;;4994765;28;20045;-78
2022/08/12 10:56:54;;;;;;;3.80;1.75;;;35.00;31.50;;;;;;4993814;28;20042;-78
2022/08/12 10:59:20;;;;;;;1.73;1.63;;;34.90;31.40;;;;;;4993508;28;20436;-78
2022/08/12 11:01:48;;;;;;;4.90;1.92;;;34.70;31.40;;;;;;4994563;28;20057;-79
2022/08/12 11:04:15;;;;;;;3.30;1.65;;;34.60;31.70;;;;;;4994201;28;20119;-78
2022/08/12 11:06:47;;;;;;;3.35;1.55;;;34.60;31.40;;;;;;4994424;28;20125;-78
2022/08/12 11:09:30;;;;;;;4.00;1.65;;;34.50;31.00;;;;;;4994394;28;20050;-78
2022/08/12 11:11:58;;;;;;;6.20;1.77;;;34.10;31.60;;;;;;4993858;28;20030;-77
2022/08/12 11:14:27;;;;;;;9.63;4.75;;;33.90;32.60;;;;;;4994463;28;20031;-78
2022/08/12 11:16:57;;;;;;;6.30;2.35;;;34.00;33.30;;;;;;4994677;28;20022;-78
2022/08/12 11:19:27;;;;;;;6.97;3.72;;;34.00;33.10;;;;;;4993404;28;20030;-76
2022/08/12 11:21:54;;;;;;;2.13;1.52;;;33.90;33.20;;;;;;4993412;28;20053;-78
2022/08/12 11:24:21;;;;;;;5.70;1.67;;;33.70;33.60;;;;;;4994190;28;20121;-77
2022/08/12 11:26:49;;;;;;;4.82;2.33;;;33.80;33.70;;;;;;4993673;28;20052;-79
2022/08/12 11:29:16;;;;;;;7.65;1.80;;;33.60;33.40;;;;;;4994214;28;20050;-78
2022/08/12 11:31:42;;;;;;;4.90;1.67;;;33.60;33.80;;;;;;4994600;28;20477;-77
2022/08/12 11:34:08;;;;;;;5.22;1.85;;;33.30;33.70;;;;;;4992984;28;20049;-79
2022/08/12 11:36:34;;;;;;;13.70;2.60;;;33.20;34.10;;;;;;4993980;28;20428;-77
2022/08/12 11:38:59;;;;;;;14.07;2.63;;;33.00;34.40;;;;;;4993098;28;20090;-77
2022/08/12 11:41:27;;;;;;;5.03;1.85;;;33.00;34.40;;;;;;4993743;28;20069;-78
2022/08/12 11:43:53;;;;;;;5.22;1.75;;;33.20;34.50;;;;;;4993619;28;20023;-78
2022/08/12 11:46:24;;;;;;;5.50;1.80;;;33.10;34.60;;;;;;4993282;28;20042;-77
2022/08/12 11:48:50;;;;;;;4.40;2.17;;;33.10;34.30;;;;;;4993560;28;20460;-78
2022/08/12 11:51:24;;;;;;;8.30;1.50;;;33.00;34.70;;;;;;4992317;28;20042;-78
2022/08/12 11:53:49;;;;;;;5.22;1.73;;;33.00;34.20;;;;;;4993358;28;20365;-77
2022/08/12 11:56:18;;;;;;;3.08;1.90;;;32.70;35.00;;;;;;4993391;28;20208;-78
2022/08/12 11:58:43;;;;;;;5.53;1.92;;;32.60;34.50;;;;;;4992341;28;20424;-77
2022/08/12 12:01:18;;;;;;;4.90;1.80;;;32.60;34.60;;;;;;4993089;28;20258;-80
2022/08/12 12:03:44;;;;;;;5.82;1.60;;;32.60;34.10;;;;;;4991776;28;20378;-77
2022/08/12 12:06:37;;;;;;;5.32;2.35;;;32.60;34.10;;;;;;4992915;28;20128;-76
2022/08/12 12:09:02;;;;;;;5.63;1.77;;;32.50;34.70;;;;;;4992449;28;20411;-77
2022/08/12 12:11:28;;;;;;;2.85;1.55;;;32.50;34.40;;;;;;4991438;28;20034;-77
2022/08/12 12:13:54;;;;;;;3.90;1.80;;;32.60;34.90;;;;;;4993129;28;20045;-77
2022/08/12 12:16:23;;;;;;;2.22;1.98;;;32.70;34.50;;;;;;4991633;28;20041;-76
2022/08/12 12:18:48;;;;;;;7.93;2.25;;;32.60;34.00;;;;;;4992591;28;20154;-77
2022/08/12 12:21:20;;;;;;;4.63;1.60;;;32.50;33.90;;;;;;4992917;28;20073;-79
2022/08/12 12:23:46;;;;;;;6.07;1.45;;;32.50;34.10;;;;;;4991812;28;20049;-78
2022/08/12 12:26:24;;;;;;;5.50;1.58;;;32.40;33.70;;;;;;4992501;28;20109;-79
2022/08/12 12:28:49;;;;;;;4.05;1.58;;;32.30;33.10;;;;;;4993288;28;20457;-77
2022/08/12 12:31:23;;;;;;;2.85;2.13;;;32.40;33.50;;;;;;4993061;28;20038;-77
2022/08/12 12:33:48;;;;;;;5.57;1.65;;;32.40;33.30;;;;;;4991534;28;20076;-78
2022/08/12 12:36:24;;;;;;;3.92;1.83;;;32.40;33.70;;;;;;4992660;28;20030;-79
2022/08/12 12:38:50;;;;;;;8.55;6.10;;;32.40;33.50;;;;;;4992315;28;20054;-79
2022/08/12 12:41:31;;;;;;;9.85;5.68;;;32.30;33.10;;;;;;4992292;28;20049;-78
2022/08/12 12:43:56;;;;;;;3.30;2.22;;;32.20;33.10;;;;;;4992513;28;20045;-79
2022/08/12 12:46:22;;;;;;;2.75;1.40;;;32.20;33.80;;;;;;4992245;28;20031;-77
2022/08/12 12:48:47;;;;;;;10.63;1.70;;;32.10;33.70;;;;;;4992238;28;20037;-79
2022/08/12 12:51:23;;;;;;;3.95;1.40;;;32.00;33.70;;;;;;4991306;28;20421;-79
2022/08/12 12:53:53;;;;;;;5.10;1.98;;;31.90;33.70;;;;;;4992469;28;20106;-78
2022/08/12 12:56:25;;;;;;;4.10;1.35;;;31.90;34.30;;;;;;4992329;28;20054;-80
2022/08/12 12:58:52;;;;;;;11.15;6.40;;;31.90;34.00;;;;;;4992520;28;20029;-79
2022/08/12 13:01:27;;;;;;;8.55;5.53;;;31.70;33.60;;;;;;4991106;28;20034;-79
2022/08/12 13:03:55;;;;;;;2.30;1.88;;;31.70;34.30;;;;;;4992350;28;20026;-79
2022/08/12 13:06:24;;;;;;;2.85;1.70;;;31.70;34.50;;;;;;4991980;28;20030;-77
2022/08/12 13:08:51;;;;;;;5.07;1.50;;;31.70;34.40;;;;;;4990678;28;20439;-79
2022/08/12 13:11:23;;;;;;;3.13;1.50;;;31.70;34.60;;;;;;4992068;28;20037;-80
2022/08/12 13:13:51;;;;;;;2.22;1.20;;;31.70;34.30;;;;;;4992732;28;20108;-79
2022/08/12 13:16:25;;;;;;;4.65;1.45;;;31.60;34.40;;;;;;4992127;28;20084;-79
2022/08/12 13:18:52;;;;;;;4.78;1.58;;;31.60;34.70;;;;;;4992043;28;20121;-79
2022/08/12 13:21:21;;;;;;;2.20;1.55;;;31.40;34.70;;;;;;4991463;28;20111;-78
2022/08/12 13:23:48;;;;;;;3.58;2.20;;;31.40;34.80;;;;;;4991721;28;20057;-78
2022/08/12 13:26:24;;;;;;;6.45;2.15;;;31.40;35.20;;;;;;4991866;28;20129;-79
2022/08/12 13:28:51;;;;;;;12.15;4.55;;;31.40;35.30;;;;;;4992254;28;20034;-78
2022/08/12 13:31:27;;;;;;;4.35;2.08;;;31.40;35.00;;;;;;4990820;28;20460;-79
2022/08/12 13:33:53;;;;;;;4.93;1.42;;;31.40;34.80;;;;;;4991776;28;20460;-78
2022/08/12 13:36:22;;;;;;;7.82;2.33;;;31.40;35.00;;;;;;4991912;28;20118;-78
2022/08/12 13:38:50;;;;;;;4.03;1.45;;;31.40;34.80;;;;;;4991837;28;20045;-79
2022/08/12 13:41:34;;;;;;;3.45;1.48;;;31.40;35.30;;;;;;4991890;28;20457;-80
2022/08/12 13:44:06;;;;;;;5.60;2.28;;;31.30;35.10;;;;;;4990880;28;20037;-78
2022/08/12 13:46:47;;;;;;;4.30;1.60;;;31.30;35.30;;;;;;4990596;28;20041;-77
2022/08/12 13:49:13;;;;;;;5.00;1.80;;;31.30;35.10;;;;;;4990641;28;20125;-79
2022/08/12 13:51:41;;;;;;;5.28;1.65;;;31.30;35.20;;;;;;4990373;28;20054;-79
2022/08/12 13:54:08;;;;;;;2.65;1.70;;;31.30;35.00;;;;;;4991824;28;20041;-80
2022/08/12 13:56:34;;;;;;;1.90;1.60;;;31.20;35.20;;;;;;4992226;28;20388;-81
2022/08/12 13:59:06;;;;;;;4.13;1.50;;;31.20;35.20;;;;;;4992368;28;20022;-78
2022/08/12 14:01:33;;;;;;;8.40;1.50;;;31.20;35.20;;;;;;4991693;28;20038;-81
2022/08/12 14:04:03;;;;;;;5.37;1.57;;;31.20;35.20;;;;;;4991271;28;20368;-80
2022/08/12 14:06:29;;;;;;;3.00;1.60;;;31.20;35.10;;;;;;4991777;28;20748;-79
2022/08/12 14:08:54;;;;;;;4.43;1.23;;;31.10;34.80;;;;;;4991809;28;20050;-79
2022/08/12 14:11:20;;;;;;;5.97;1.85;;;31.00;34.90;;;;;;4991880;28;20161;-78
2022/08/12 14:13:47;;;;;;;5.15;2.95;;;31.00;35.20;;;;;;4991977;28;20105;-80
2022/08/12 14:16:30;;;;;;;5.20;2.45;;;30.90;35.20;;;;;;4990552;28;20469;-78
2022/08/12 14:18:56;;;;;;;3.45;1.70;;;30.90;35.20;;;;;;4990487;28;20037;-79
2022/08/12 14:21:21;;;;;;;3.08;1.30;;;30.90;35.60;;;;;;4991537;28;20030;-76
2022/08/12 14:23:50;;;;;;;7.85;1.33;;;30.80;35.60;;;;;;4991617;28;20069;-79
2022/08/12 14:26:26;;;;;;;5.53;1.90;;;30.70;35.50;;;;;;4990263;28;20036;-79
2022/08/12 14:28:53;;;;;;;8.55;1.55;;;30.60;35.50;;;;;;4991626;28;20033;-78
2022/08/12 14:31:27;;;;;;;4.55;1.60;;;30.70;35.50;;;;;;4991207;28;20039;-78
2022/08/12 14:33:53;;;;;;;5.88;2.00;;;30.60;35.80;;;;;;4993462;28;20030;-78
2022/08/12 14:36:28;;;;;;;4.28;1.80;;;30.60;35.30;;;;;;4994754;28;20030;-79
2022/08/12 14:38:54;;;;;;;1.98;1.48;;;30.50;35.40;;;;;;4994627;28;20504;-78
2022/08/12 14:41:26;;;;;;;1.75;1.23;;;30.40;35.60;;;;;;4994791;28;20128;-78
2022/08/12 14:43:52;;;;;;;2.80;1.50;;;30.40;35.50;;;;;;4994939;28;20041;-80
2022/08/12 14:46:26;;;;;;;3.47;1.70;;;30.40;35.50;;;;;;4994525;28;20130;-79
2022/08/12 14:48:52;;;;;;;2.40;1.60;;;30.50;35.80;;;;;;4993514;28;20142;-79
2022/08/12 14:51:30;;;;;;;1.60;1.30;;;30.40;36.00;;;;;;4994573;28;20038;-78